الصفحة الرئيسية
METAR-TAF:

METAR-TAF

مطار :

مطار فانكوفر الدولي

فانكوفر, كولومبيا البريطانية, كندا

دائرة عرض: 49-11N, خط طول: 123-10W, ارتفاع: 3 متر

مراقبة الطقس الحالي

تاريخ ووقت الإصدار 54 دقيقة قبل الساعة 04:00UTC
ريح 5 عقدة من الجنوب الشرقي
درجة الحرارة 18°درجة مئوية
الرطوبة 73%
ضغط 1022 hPa
الرؤية: 32.2 كم
غيوم قليلة على ارتفاع 24000 قدم

METAR: CYVR 180400Z 13005KT 20SM FEW240 18/13 A3018 RMK CI1 SLP221 DENSITY ALT 100FT

زمن: 21:54 (04:54 UTC)

توقعات

تاريخ ووقت الإصدار 2ساعات و 16 دقيقة قبل الساعة 02:38UTC
التوقعات صالحة من18 الساعة 03 UTC إلى 19 الساعة 06 UTC
ريح 8 عقدة من الجنوب الغربي
الرؤية: 10 كم
غيوم قليلة على ارتفاع 22000 قدم
أصبح
من 18 الساعة 05 UTC إلى 18 الساعة 07 UTC
ريح 3 عقدةمن اتجاهات متغيرة
من 18 الساعة 1600 UTC
ريح 8 عقدة من الغرب/الشمال الغربي
الرؤية: 10 كم
سماء صافية

TAF: CYVR 180238Z 1803/1906 22008KT P6SM FEW220 BECMG 1805/1807 VRB03KT FM181600 29008KT P6SM SKC RMK NXT FCST BY 180600Z

أرصاد الطقس والتوقعات من أكثر من 4000 مطار (تقارير الطقس للمطار METAR والتنبؤ بالطقس بالمطارTAF).

المحطات المتاحة هي النقط الصفراء والحمراء على الخريطة.

حرك المؤشر فوق النقطة لمعرفة اسم المحطة.

ثم انقر لمعرفة أرصاد وتوقعات الطقس.

لتغيير الخارطة: اضغط على الأزرار الخضراء مع رمز الصليب الأسود للتكبير. على الزر الأخضر مع شرطة للتصغير، أو على الأسهم الخضراء للخرائط المجاورة.


METAR-TAF: